sensor_id;sensor_type;location;lat;lon;timestamp;P1;durP1;ratioP1;P2;durP2;ratioP2
52067;SDS011;60237;52.338;21.228;2022-12-11T00:00:23;116.07;;;35.50;;
52067;SDS011;60237;52.338;21.228;2022-12-11T00:02:50;110.20;;;33.28;;
52067;SDS011;60237;52.338;21.228;2022-12-11T00:05:16;117.07;;;34.75;;
52067;SDS011;60237;52.338;21.228;2022-12-11T00:07:42;118.20;;;33.85;;
52067;SDS011;60237;52.338;21.228;2022-12-11T00:10:09;107.60;;;31.48;;
52067;SDS011;60237;52.338;21.228;2022-12-11T00:12:35;110.68;;;33.28;;
52067;SDS011;60237;52.338;21.228;2022-12-11T00:15:02;112.22;;;31.83;;
52067;SDS011;60237;52.338;21.228;2022-12-11T00:17:30;122.78;;;36.20;;
52067;SDS011;60237;52.338;21.228;2022-12-11T00:19:56;108.68;;;34.88;;
52067;SDS011;60237;52.338;21.228;2022-12-11T00:22:22;136.02;;;34.90;;
52067;SDS011;60237;52.338;21.228;2022-12-11T00:24:50;114.75;;;33.22;;
52067;SDS011;60237;52.338;21.228;2022-12-11T00:27:16;140.38;;;35.58;;
52067;SDS011;60237;52.338;21.228;2022-12-11T00:29:43;128.20;;;33.08;;
52067;SDS011;60237;52.338;21.228;2022-12-11T00:32:10;131.77;;;36.88;;
52067;SDS011;60237;52.338;21.228;2022-12-11T00:34:36;138.20;;;37.97;;
52067;SDS011;60237;52.338;21.228;2022-12-11T00:37:03;154.30;;;36.67;;
52067;SDS011;60237;52.338;21.228;2022-12-11T00:39:29;128.20;;;34.80;;
52067;SDS011;60237;52.338;21.228;2022-12-11T00:41:56;140.80;;;34.15;;
52067;SDS011;60237;52.338;21.228;2022-12-11T00:44:23;152.38;;;37.85;;
52067;SDS011;60237;52.338;21.228;2022-12-11T00:46:50;136.88;;;35.47;;
52067;SDS011;60237;52.338;21.228;2022-12-11T00:49:16;159.02;;;36.60;;
52067;SDS011;60237;52.338;21.228;2022-12-11T00:51:43;160.32;;;36.40;;
52067;SDS011;60237;52.338;21.228;2022-12-11T00:54:09;152.07;;;34.47;;
52067;SDS011;60237;52.338;21.228;2022-12-11T00:56:35;160.60;;;36.53;;
52067;SDS011;60237;52.338;21.228;2022-12-11T00:59:02;170.95;;;37.60;;
52067;SDS011;60237;52.338;21.228;2022-12-11T01:01:28;146.85;;;35.78;;
52067;SDS011;60237;52.338;21.228;2022-12-11T01:03:55;181.32;;;39.00;;
52067;SDS011;60237;52.338;21.228;2022-12-11T01:06:23;171.20;;;37.65;;
52067;SDS011;60237;52.338;21.228;2022-12-11T01:08:50;166.43;;;35.03;;
52067;SDS011;60237;52.338;21.228;2022-12-11T01:11:36;154.07;;;38.00;;
52067;SDS011;60237;52.338;21.228;2022-12-11T01:14:03;146.45;;;35.90;;
52067;SDS011;60237;52.338;21.228;2022-12-11T01:16:29;160.32;;;36.80;;
52067;SDS011;60237;52.338;21.228;2022-12-11T01:18:56;175.05;;;39.15;;
52067;SDS011;60237;52.338;21.228;2022-12-11T01:21:23;152.32;;;36.03;;
52067;SDS011;60237;52.338;21.228;2022-12-11T01:23:50;151.95;;;35.55;;
52067;SDS011;60237;52.338;21.228;2022-12-11T01:26:17;138.27;;;33.78;;
52067;SDS011;60237;52.338;21.228;2022-12-11T01:28:43;138.93;;;32.83;;
52067;SDS011;60237;52.338;21.228;2022-12-11T01:31:10;153.57;;;37.25;;
52067;SDS011;60237;52.338;21.228;2022-12-11T01:33:37;182.43;;;37.25;;
52067;SDS011;60237;52.338;21.228;2022-12-11T01:36:18;155.30;;;34.97;;
52067;SDS011;60237;52.338;21.228;2022-12-11T01:38:45;170.70;;;34.55;;
52067;SDS011;60237;52.338;21.228;2022-12-11T01:41:13;144.90;;;34.05;;
52067;SDS011;60237;52.338;21.228;2022-12-11T01:46:24;159.65;;;34.80;;
52067;SDS011;60237;52.338;21.228;2022-12-11T01:48:51;125.03;;;31.35;;
52067;SDS011;60237;52.338;21.228;2022-12-11T01:51:18;129.50;;;31.70;;
52067;SDS011;60237;52.338;21.228;2022-12-11T01:53:47;158.80;;;36.92;;
52067;SDS011;60237;52.338;21.228;2022-12-11T01:56:16;129.65;;;34.22;;
52067;SDS011;60237;52.338;21.228;2022-12-11T01:58:46;134.18;;;33.50;;
52067;SDS011;60237;52.338;21.228;2022-12-11T02:01:17;146.30;;;35.78;;
52067;SDS011;60237;52.338;21.228;2022-12-11T02:03:45;125.22;;;31.58;;
52067;SDS011;60237;52.338;21.228;2022-12-11T02:08:57;147.88;;;34.20;;
52067;SDS011;60237;52.338;21.228;2022-12-11T02:11:24;134.10;;;32.50;;
52067;SDS011;60237;52.338;21.228;2022-12-11T02:14:04;132.38;;;33.25;;
52067;SDS011;60237;52.338;21.228;2022-12-11T02:17:18;110.15;;;30.75;;
52067;SDS011;60237;52.338;21.228;2022-12-11T02:22:10;131.02;;;31.85;;
52067;SDS011;60237;52.338;21.228;2022-12-11T02:24:47;115.80;;;30.42;;
52067;SDS011;60237;52.338;21.228;2022-12-11T02:29:48;122.72;;;31.67;;
52067;SDS011;60237;52.338;21.228;2022-12-11T02:37:19;102.35;;;27.52;;
52067;SDS011;60237;52.338;21.228;2022-12-11T02:39:46;100.20;;;28.05;;
52067;SDS011;60237;52.338;21.228;2022-12-11T02:42:13;108.20;;;30.17;;
52067;SDS011;60237;52.338;21.228;2022-12-11T02:44:41;117.68;;;30.20;;
52067;SDS011;60237;52.338;21.228;2022-12-11T02:47:10;106.82;;;28.50;;
52067;SDS011;60237;52.338;21.228;2022-12-11T02:49:37;85.75;;;24.77;;
52067;SDS011;60237;52.338;21.228;2022-12-11T02:52:05;89.63;;;26.02;;
52067;SDS011;60237;52.338;21.228;2022-12-11T02:54:33;90.82;;;27.30;;
52067;SDS011;60237;52.338;21.228;2022-12-11T02:57:08;124.25;;;26.40;;
52067;SDS011;60237;52.338;21.228;2022-12-11T02:59:41;77.75;;;22.45;;
52067;SDS011;60237;52.338;21.228;2022-12-11T03:02:08;78.50;;;23.33;;
52067;SDS011;60237;52.338;21.228;2022-12-11T03:04:35;77.45;;;22.00;;
52067;SDS011;60237;52.338;21.228;2022-12-11T03:07:05;97.78;;;26.50;;
52067;SDS011;60237;52.338;21.228;2022-12-11T03:09:41;61.95;;;21.50;;
52067;SDS011;60237;52.338;21.228;2022-12-11T03:12:09;72.93;;;23.38;;
52067;SDS011;60237;52.338;21.228;2022-12-11T03:14:36;95.05;;;24.30;;
52067;SDS011;60237;52.338;21.228;2022-12-11T03:17:07;86.63;;;23.23;;
52067;SDS011;60237;52.338;21.228;2022-12-11T03:19:35;70.28;;;21.65;;
52067;SDS011;60237;52.338;21.228;2022-12-11T03:22:07;84.90;;;23.55;;
52067;SDS011;60237;52.338;21.228;2022-12-11T03:28:11;60.88;;;20.58;;
52067;SDS011;60237;52.338;21.228;2022-12-11T03:30:30;86.32;;;24.58;;
52067;SDS011;60237;52.338;21.228;2022-12-11T03:33:02;79.88;;;23.88;;
52067;SDS011;60237;52.338;21.228;2022-12-11T03:35:32;77.45;;;24.15;;
52067;SDS011;60237;52.338;21.228;2022-12-11T03:38:00;80.22;;;22.55;;
52067;SDS011;60237;52.338;21.228;2022-12-11T03:40:27;105.28;;;26.58;;
52067;SDS011;60237;52.338;21.228;2022-12-11T03:42:56;91.82;;;24.45;;
52067;SDS011;60237;52.338;21.228;2022-12-11T03:45:22;81.70;;;24.45;;
52067;SDS011;60237;52.338;21.228;2022-12-11T03:47:51;83.85;;;23.60;;
52067;SDS011;60237;52.338;21.228;2022-12-11T03:50:18;81.25;;;24.58;;
52067;SDS011;60237;52.338;21.228;2022-12-11T03:52:45;82.28;;;24.45;;
52067;SDS011;60237;52.338;21.228;2022-12-11T03:55:13;89.43;;;25.60;;
52067;SDS011;60237;52.338;21.228;2022-12-11T03:57:41;81.57;;;25.63;;
52067;SDS011;60237;52.338;21.228;2022-12-11T04:00:09;80.20;;;26.05;;
52067;SDS011;60237;52.338;21.228;2022-12-11T04:02:39;105.38;;;29.10;;
52067;SDS011;60237;52.338;21.228;2022-12-11T04:05:06;98.00;;;27.80;;
52067;SDS011;60237;52.338;21.228;2022-12-11T04:07:33;84.88;;;25.50;;
52067;SDS011;60237;52.338;21.228;2022-12-11T04:10:00;80.20;;;25.10;;
52067;SDS011;60237;52.338;21.228;2022-12-11T04:12:27;97.45;;;27.20;;
52067;SDS011;60237;52.338;21.228;2022-12-11T04:14:53;86.03;;;26.15;;
52067;SDS011;60237;52.338;21.228;2022-12-11T04:17:30;80.93;;;26.58;;
52067;SDS011;60237;52.338;21.228;2022-12-11T04:20:15;85.53;;;26.83;;
52067;SDS011;60237;52.338;21.228;2022-12-11T04:23:02;94.40;;;26.60;;
52067;SDS011;60237;52.338;21.228;2022-12-11T04:25:47;76.03;;;25.75;;
52067;SDS011;60237;52.338;21.228;2022-12-11T04:28:14;86.18;;;24.67;;
52067;SDS011;60237;52.338;21.228;2022-12-11T04:30:46;87.95;;;26.80;;
52067;SDS011;60237;52.338;21.228;2022-12-11T04:33:12;89.03;;;27.10;;
52067;SDS011;60237;52.338;21.228;2022-12-11T04:35:39;88.00;;;25.42;;
52067;SDS011;60237;52.338;21.228;2022-12-11T04:38:05;66.43;;;23.48;;
52067;SDS011;60237;52.338;21.228;2022-12-11T04:40:32;73.22;;;23.63;;
52067;SDS011;60237;52.338;21.228;2022-12-11T04:42:58;93.40;;;26.70;;
52067;SDS011;60237;52.338;21.228;2022-12-11T04:45:25;92.18;;;25.00;;
52067;SDS011;60237;52.338;21.228;2022-12-11T04:47:51;79.65;;;23.23;;
52067;SDS011;60237;52.338;21.228;2022-12-11T04:50:18;98.18;;;28.00;;
52067;SDS011;60237;52.338;21.228;2022-12-11T04:52:44;65.63;;;24.90;;
52067;SDS011;60237;52.338;21.228;2022-12-11T04:55:11;80.88;;;25.40;;
52067;SDS011;60237;52.338;21.228;2022-12-11T04:57:38;75.32;;;24.35;;
52067;SDS011;60237;52.338;21.228;2022-12-11T05:00:05;74.28;;;22.92;;
52067;SDS011;60237;52.338;21.228;2022-12-11T05:02:38;69.45;;;24.08;;
52067;SDS011;60237;52.338;21.228;2022-12-11T05:05:06;82.55;;;23.92;;
52067;SDS011;60237;52.338;21.228;2022-12-11T05:07:35;76.82;;;22.73;;
52067;SDS011;60237;52.338;21.228;2022-12-11T05:10:03;65.45;;;21.42;;
52067;SDS011;60237;52.338;21.228;2022-12-11T05:12:30;68.18;;;22.40;;
52067;SDS011;60237;52.338;21.228;2022-12-11T05:14:57;73.88;;;22.80;;
52067;SDS011;60237;52.338;21.228;2022-12-11T05:17:23;90.95;;;23.63;;
52067;SDS011;60237;52.338;21.228;2022-12-11T05:19:50;78.68;;;23.70;;
52067;SDS011;60237;52.338;21.228;2022-12-11T05:22:17;68.95;;;22.30;;
52067;SDS011;60237;52.338;21.228;2022-12-11T05:24:44;81.22;;;22.40;;
52067;SDS011;60237;52.338;21.228;2022-12-11T05:27:11;78.43;;;24.25;;
52067;SDS011;60237;52.338;21.228;2022-12-11T05:29:37;78.28;;;22.55;;
52067;SDS011;60237;52.338;21.228;2022-12-11T05:32:04;68.97;;;21.88;;
52067;SDS011;60237;52.338;21.228;2022-12-11T05:34:30;93.47;;;26.00;;
52067;SDS011;60237;52.338;21.228;2022-12-11T05:36:58;89.53;;;22.55;;
52067;SDS011;60237;52.338;21.228;2022-12-11T05:39:24;77.63;;;24.23;;
52067;SDS011;60237;52.338;21.228;2022-12-11T05:41:51;99.60;;;26.60;;
52067;SDS011;60237;52.338;21.228;2022-12-11T05:44:17;77.18;;;23.45;;
52067;SDS011;60237;52.338;21.228;2022-12-11T05:46:44;66.05;;;21.17;;
52067;SDS011;60237;52.338;21.228;2022-12-11T05:49:11;82.10;;;22.52;;
52067;SDS011;60237;52.338;21.228;2022-12-11T05:51:37;86.15;;;23.85;;
52067;SDS011;60237;52.338;21.228;2022-12-11T05:54:04;69.30;;;20.73;;
52067;SDS011;60237;52.338;21.228;2022-12-11T05:56:32;81.78;;;22.45;;
52067;SDS011;60237;52.338;21.228;2022-12-11T05:58:59;80.22;;;23.05;;
52067;SDS011;60237;52.338;21.228;2022-12-11T06:01:33;79.70;;;23.65;;
52067;SDS011;60237;52.338;21.228;2022-12-11T06:04:00;75.93;;;22.15;;
52067;SDS011;60237;52.338;21.228;2022-12-11T06:06:27;77.72;;;21.75;;
52067;SDS011;60237;52.338;21.228;2022-12-11T06:08:55;75.90;;;21.85;;
52067;SDS011;60237;52.338;21.228;2022-12-11T06:11:21;86.20;;;23.50;;
52067;SDS011;60237;52.338;21.228;2022-12-11T06:13:49;69.18;;;21.65;;
52067;SDS011;60237;52.338;21.228;2022-12-11T06:16:16;94.13;;;24.88;;
52067;SDS011;60237;52.338;21.228;2022-12-11T06:18:43;86.43;;;22.00;;
52067;SDS011;60237;52.338;21.228;2022-12-11T06:21:14;89.47;;;24.33;;
52067;SDS011;60237;52.338;21.228;2022-12-11T06:23:41;82.72;;;20.75;;
52067;SDS011;60237;52.338;21.228;2022-12-11T06:26:08;65.80;;;19.15;;
52067;SDS011;60237;52.338;21.228;2022-12-11T06:28:34;71.82;;;20.02;;
52067;SDS011;60237;52.338;21.228;2022-12-11T06:31:01;75.57;;;19.40;;
52067;SDS011;60237;52.338;21.228;2022-12-11T06:33:28;74.22;;;18.38;;
52067;SDS011;60237;52.338;21.228;2022-12-11T06:35:55;62.75;;;16.65;;
52067;SDS011;60237;52.338;21.228;2022-12-11T06:38:22;59.08;;;16.55;;
52067;SDS011;60237;52.338;21.228;2022-12-11T06:40:55;70.75;;;17.63;;
52067;SDS011;60237;52.338;21.228;2022-12-11T06:45:48;71.57;;;17.98;;
52067;SDS011;60237;52.338;21.228;2022-12-11T06:48:15;54.80;;;16.30;;
52067;SDS011;60237;52.338;21.228;2022-12-11T06:50:41;72.80;;;20.00;;
52067;SDS011;60237;52.338;21.228;2022-12-11T06:53:08;76.55;;;17.55;;
52067;SDS011;60237;52.338;21.228;2022-12-11T06:55:35;60.92;;;15.57;;
52067;SDS011;60237;52.338;21.228;2022-12-11T06:58:02;58.95;;;16.60;;
52067;SDS011;60237;52.338;21.228;2022-12-11T07:00:28;68.70;;;16.75;;
52067;SDS011;60237;52.338;21.228;2022-12-11T07:02:55;92.43;;;19.10;;
52067;SDS011;60237;52.338;21.228;2022-12-11T07:05:21;60.92;;;16.10;;
52067;SDS011;60237;52.338;21.228;2022-12-11T07:07:48;57.63;;;16.95;;
52067;SDS011;60237;52.338;21.228;2022-12-11T07:10:16;64.05;;;15.50;;
52067;SDS011;60237;52.338;21.228;2022-12-11T07:12:42;62.67;;;17.42;;
52067;SDS011;60237;52.338;21.228;2022-12-11T07:15:09;70.57;;;17.67;;
52067;SDS011;60237;52.338;21.228;2022-12-11T07:17:36;74.10;;;20.27;;
52067;SDS011;60237;52.338;21.228;2022-12-11T07:20:02;63.53;;;18.58;;
52067;SDS011;60237;52.338;21.228;2022-12-11T07:22:29;58.08;;;17.40;;
52067;SDS011;60237;52.338;21.228;2022-12-11T07:24:56;79.22;;;19.55;;
52067;SDS011;60237;52.338;21.228;2022-12-11T07:27:22;82.28;;;23.17;;
52067;SDS011;60237;52.338;21.228;2022-12-11T07:29:49;99.93;;;24.40;;
52067;SDS011;60237;52.338;21.228;2022-12-11T07:32:15;81.20;;;20.27;;
52067;SDS011;60237;52.338;21.228;2022-12-11T07:34:42;79.95;;;20.77;;
52067;SDS011;60237;52.338;21.228;2022-12-11T07:37:16;84.45;;;21.48;;
52067;SDS011;60237;52.338;21.228;2022-12-11T07:39:43;81.32;;;21.92;;
52067;SDS011;60237;52.338;21.228;2022-12-11T07:42:09;70.85;;;19.00;;
52067;SDS011;60237;52.338;21.228;2022-12-11T07:44:36;71.40;;;19.50;;
52067;SDS011;60237;52.338;21.228;2022-12-11T07:47:02;112.97;;;28.48;;
52067;SDS011;60237;52.338;21.228;2022-12-11T07:49:29;82.75;;;22.98;;
52067;SDS011;60237;52.338;21.228;2022-12-11T07:51:55;96.82;;;26.20;;
52067;SDS011;60237;52.338;21.228;2022-12-11T07:54:23;104.60;;;27.25;;
52067;SDS011;60237;52.338;21.228;2022-12-11T07:56:50;94.72;;;21.17;;
52067;SDS011;60237;52.338;21.228;2022-12-11T07:59:19;92.05;;;22.15;;
52067;SDS011;60237;52.338;21.228;2022-12-11T08:01:46;92.93;;;22.63;;
52067;SDS011;60237;52.338;21.228;2022-12-11T08:04:13;69.10;;;19.85;;
52067;SDS011;60237;52.338;21.228;2022-12-11T08:06:41;95.45;;;22.27;;
52067;SDS011;60237;52.338;21.228;2022-12-11T08:09:08;109.93;;;23.73;;
52067;SDS011;60237;52.338;21.228;2022-12-11T08:11:35;70.43;;;22.95;;
52067;SDS011;60237;52.338;21.228;2022-12-11T08:14:02;57.00;;;18.15;;
52067;SDS011;60237;52.338;21.228;2022-12-11T08:16:28;90.35;;;23.30;;
52067;SDS011;60237;52.338;21.228;2022-12-11T08:18:56;85.15;;;21.15;;
52067;SDS011;60237;52.338;21.228;2022-12-11T08:21:23;80.85;;;20.02;;
52067;SDS011;60237;52.338;21.228;2022-12-11T08:23:51;86.32;;;20.35;;
52067;SDS011;60237;52.338;21.228;2022-12-11T08:26:23;69.03;;;19.42;;
52067;SDS011;60237;52.338;21.228;2022-12-11T08:28:50;73.28;;;21.00;;
52067;SDS011;60237;52.338;21.228;2022-12-11T08:31:16;92.40;;;22.13;;
52067;SDS011;60237;52.338;21.228;2022-12-11T08:33:43;85.03;;;20.63;;
52067;SDS011;60237;52.338;21.228;2022-12-11T08:36:11;74.15;;;24.15;;
52067;SDS011;60237;52.338;21.228;2022-12-11T08:38:38;108.97;;;25.98;;
52067;SDS011;60237;52.338;21.228;2022-12-11T08:41:08;92.07;;;22.02;;
52067;SDS011;60237;52.338;21.228;2022-12-11T08:43:35;84.40;;;22.48;;
52067;SDS011;60237;52.338;21.228;2022-12-11T08:46:01;81.03;;;20.73;;
52067;SDS011;60237;52.338;21.228;2022-12-11T08:48:28;79.93;;;21.88;;
52067;SDS011;60237;52.338;21.228;2022-12-11T08:50:57;125.07;;;21.77;;
52067;SDS011;60237;52.338;21.228;2022-12-11T08:53:24;103.45;;;22.75;;
52067;SDS011;60237;52.338;21.228;2022-12-11T08:55:50;70.30;;;21.27;;
52067;SDS011;60237;52.338;21.228;2022-12-11T08:58:17;85.20;;;23.42;;
52067;SDS011;60237;52.338;21.228;2022-12-11T09:00:43;92.90;;;23.08;;
52067;SDS011;60237;52.338;21.228;2022-12-11T09:03:09;115.93;;;25.65;;
52067;SDS011;60237;52.338;21.228;2022-12-11T09:05:38;92.50;;;23.40;;
52067;SDS011;60237;52.338;21.228;2022-12-11T09:08:05;129.20;;;26.30;;
52067;SDS011;60237;52.338;21.228;2022-12-11T09:10:32;84.97;;;22.70;;
52067;SDS011;60237;52.338;21.228;2022-12-11T09:12:58;102.28;;;23.90;;
52067;SDS011;60237;52.338;21.228;2022-12-11T09:15:25;101.03;;;23.02;;
52067;SDS011;60237;52.338;21.228;2022-12-11T09:17:51;94.47;;;22.52;;
52067;SDS011;60237;52.338;21.228;2022-12-11T09:20:18;75.32;;;21.95;;
52067;SDS011;60237;52.338;21.228;2022-12-11T09:22:44;85.72;;;22.25;;
52067;SDS011;60237;52.338;21.228;2022-12-11T09:25:11;97.88;;;23.33;;
52067;SDS011;60237;52.338;21.228;2022-12-11T09:27:38;81.88;;;23.67;;
52067;SDS011;60237;52.338;21.228;2022-12-11T09:30:05;109.75;;;23.88;;
52067;SDS011;60237;52.338;21.228;2022-12-11T09:32:31;70.95;;;22.13;;
52067;SDS011;60237;52.338;21.228;2022-12-11T09:34:58;99.75;;;23.42;;
52067;SDS011;60237;52.338;21.228;2022-12-11T09:37:24;85.72;;;22.67;;
52067;SDS011;60237;52.338;21.228;2022-12-11T09:39:51;75.60;;;20.95;;
52067;SDS011;60237;52.338;21.228;2022-12-11T09:47:15;89.43;;;22.25;;
52067;SDS011;60237;52.338;21.228;2022-12-11T09:49:42;69.93;;;18.17;;
52067;SDS011;60237;52.338;21.228;2022-12-11T09:54:47;72.47;;;20.65;;
52067;SDS011;60237;52.338;21.228;2022-12-11T10:05:28;74.72;;;18.25;;
52067;SDS011;60237;52.338;21.228;2022-12-11T10:08:00;79.97;;;19.65;;
52067;SDS011;60237;52.338;21.228;2022-12-11T10:13:06;79.93;;;20.05;;
52067;SDS011;60237;52.338;21.228;2022-12-11T10:18:22;69.93;;;19.75;;
52067;SDS011;60237;52.338;21.228;2022-12-11T10:20:51;90.18;;;20.83;;
52067;SDS011;60237;52.338;21.228;2022-12-11T10:23:26;86.72;;;19.70;;
52067;SDS011;60237;52.338;21.228;2022-12-11T10:25:57;92.15;;;23.25;;
52067;SDS011;60237;52.338;21.228;2022-12-11T10:28:27;77.65;;;20.70;;
52067;SDS011;60237;52.338;21.228;2022-12-11T10:31:02;101.65;;;24.38;;
52067;SDS011;60237;52.338;21.228;2022-12-11T10:33:38;80.20;;;25.77;;
52067;SDS011;60237;52.338;21.228;2022-12-11T10:36:07;107.88;;;27.02;;
52067;SDS011;60237;52.338;21.228;2022-12-11T10:38:38;88.32;;;22.20;;
52067;SDS011;60237;52.338;21.228;2022-12-11T10:43:42;83.15;;;21.27;;
52067;SDS011;60237;52.338;21.228;2022-12-11T10:46:19;66.38;;;18.35;;
52067;SDS011;60237;52.338;21.228;2022-12-11T10:51:13;74.80;;;21.20;;
52067;SDS011;60237;52.338;21.228;2022-12-11T10:53:39;61.25;;;17.70;;
52067;SDS011;60237;52.338;21.228;2022-12-11T10:56:08;64.88;;;18.58;;
52067;SDS011;60237;52.338;21.228;2022-12-11T10:58:36;63.88;;;17.58;;
52067;SDS011;60237;52.338;21.228;2022-12-11T11:01:13;84.25;;;24.15;;
52067;SDS011;60237;52.338;21.228;2022-12-11T11:03:56;78.55;;;20.98;;
52067;SDS011;60237;52.338;21.228;2022-12-11T11:06:24;83.50;;;20.45;;
52067;SDS011;60237;52.338;21.228;2022-12-11T11:08:52;90.70;;;21.98;;
52067;SDS011;60237;52.338;21.228;2022-12-11T11:11:26;75.00;;;18.50;;
52067;SDS011;60237;52.338;21.228;2022-12-11T11:16:51;57.50;;;14.93;;
52067;SDS011;60237;52.338;21.228;2022-12-11T11:19:22;64.35;;;18.02;;
52067;SDS011;60237;52.338;21.228;2022-12-11T11:21:53;71.00;;;19.98;;
52067;SDS011;60237;52.338;21.228;2022-12-11T11:24:22;69.22;;;16.63;;
52067;SDS011;60237;52.338;21.228;2022-12-11T11:26:49;94.07;;;20.45;;
52067;SDS011;60237;52.338;21.228;2022-12-11T11:29:36;62.75;;;18.85;;
52067;SDS011;60237;52.338;21.228;2022-12-11T11:32:13;66.90;;;19.35;;
52067;SDS011;60237;52.338;21.228;2022-12-11T11:34:40;53.40;;;16.17;;
52067;SDS011;60237;52.338;21.228;2022-12-11T11:37:14;59.67;;;16.33;;
52067;SDS011;60237;52.338;21.228;2022-12-11T11:39:47;60.75;;;17.33;;
52067;SDS011;60237;52.338;21.228;2022-12-11T11:42:21;63.90;;;16.45;;
52067;SDS011;60237;52.338;21.228;2022-12-11T11:45:04;86.13;;;17.40;;
52067;SDS011;60237;52.338;21.228;2022-12-11T11:47:37;66.95;;;16.75;;
52067;SDS011;60237;52.338;21.228;2022-12-11T11:50:14;52.22;;;15.38;;
52067;SDS011;60237;52.338;21.228;2022-12-11T11:52:49;50.65;;;15.15;;
52067;SDS011;60237;52.338;21.228;2022-12-11T11:55:17;60.75;;;16.83;;
52067;SDS011;60237;52.338;21.228;2022-12-11T12:00:33;48.60;;;16.05;;
52067;SDS011;60237;52.338;21.228;2022-12-11T12:03:00;72.35;;;17.75;;
52067;SDS011;60237;52.338;21.228;2022-12-11T12:05:30;46.17;;;14.93;;
52067;SDS011;60237;52.338;21.228;2022-12-11T12:08:07;48.30;;;15.32;;
52067;SDS011;60237;52.338;21.228;2022-12-11T12:13:05;67.57;;;16.75;;
52067;SDS011;60237;52.338;21.228;2022-12-11T12:15:55;63.42;;;16.83;;
52067;SDS011;60237;52.338;21.228;2022-12-11T12:23:43;47.67;;;14.48;;
52067;SDS011;60237;52.338;21.228;2022-12-11T12:36:52;56.95;;;17.10;;
52067;SDS011;60237;52.338;21.228;2022-12-11T12:39:28;74.90;;;21.08;;
52067;SDS011;60237;52.338;21.228;2022-12-11T12:42:01;71.50;;;16.42;;
52067;SDS011;60237;52.338;21.228;2022-12-11T12:44:36;60.45;;;16.17;;
52067;SDS011;60237;52.338;21.228;2022-12-11T12:47:08;59.70;;;16.40;;
52067;SDS011;60237;52.338;21.228;2022-12-11T12:49:41;43.42;;;14.45;;
52067;SDS011;60237;52.338;21.228;2022-12-11T12:54:54;63.60;;;19.25;;
52067;SDS011;60237;52.338;21.228;2022-12-11T12:57:43;49.78;;;16.85;;
52067;SDS011;60237;52.338;21.228;2022-12-11T13:00:10;67.10;;;16.38;;
52067;SDS011;60237;52.338;21.228;2022-12-11T13:02:48;63.58;;;15.70;;
52067;SDS011;60237;52.338;21.228;2022-12-11T13:05:22;65.60;;;15.07;;
52067;SDS011;60237;52.338;21.228;2022-12-11T13:07:51;59.03;;;15.38;;
52067;SDS011;60237;52.338;21.228;2022-12-11T13:10:24;69.38;;;17.40;;
52067;SDS011;60237;52.338;21.228;2022-12-11T13:12:51;79.53;;;17.55;;
52067;SDS011;60237;52.338;21.228;2022-12-11T13:15:37;68.43;;;16.75;;
52067;SDS011;60237;52.338;21.228;2022-12-11T13:20:53;69.95;;;16.63;;
52067;SDS011;60237;52.338;21.228;2022-12-11T13:23:30;66.00;;;16.90;;
52067;SDS011;60237;52.338;21.228;2022-12-11T13:25:58;57.50;;;15.80;;
52067;SDS011;60237;52.338;21.228;2022-12-11T13:28:26;49.05;;;16.17;;
52067;SDS011;60237;52.338;21.228;2022-12-11T13:33:23;56.70;;;15.50;;
52067;SDS011;60237;52.338;21.228;2022-12-11T13:36:00;84.45;;;18.55;;
52067;SDS011;60237;52.338;21.228;2022-12-11T13:38:27;79.95;;;19.05;;
52067;SDS011;60237;52.338;21.228;2022-12-11T13:40:54;87.15;;;20.77;;
52067;SDS011;60237;52.338;21.228;2022-12-11T13:43:22;56.47;;;15.13;;
52067;SDS011;60237;52.338;21.228;2022-12-11T13:45:50;77.20;;;18.70;;
52067;SDS011;60237;52.338;21.228;2022-12-11T13:48:22;86.78;;;21.35;;
52067;SDS011;60237;52.338;21.228;2022-12-11T13:50:51;84.93;;;18.80;;
52067;SDS011;60237;52.338;21.228;2022-12-11T13:53:19;56.35;;;17.63;;
52067;SDS011;60237;52.338;21.228;2022-12-11T13:55:54;64.95;;;18.75;;
52067;SDS011;60237;52.338;21.228;2022-12-11T13:58:21;72.82;;;17.88;;
52067;SDS011;60237;52.338;21.228;2022-12-11T14:03:30;77.78;;;18.27;;
52067;SDS011;60237;52.338;21.228;2022-12-11T14:05:58;73.90;;;16.33;;
52067;SDS011;60237;52.338;21.228;2022-12-11T14:08:26;54.42;;;16.08;;
52067;SDS011;60237;52.338;21.228;2022-12-11T14:10:56;96.55;;;18.40;;
52067;SDS011;60237;52.338;21.228;2022-12-11T14:13:24;53.63;;;16.80;;
52067;SDS011;60237;52.338;21.228;2022-12-11T14:15:51;66.47;;;16.92;;
52067;SDS011;60237;52.338;21.228;2022-12-11T14:18:20;56.45;;;14.70;;
52067;SDS011;60237;52.338;21.228;2022-12-11T14:20:52;66.03;;;19.02;;
52067;SDS011;60237;52.338;21.228;2022-12-11T14:23:19;60.45;;;18.38;;
52067;SDS011;60237;52.338;21.228;2022-12-11T14:28:22;59.72;;;17.65;;
52067;SDS011;60237;52.338;21.228;2022-12-11T14:30:55;67.78;;;19.75;;
52067;SDS011;60237;52.338;21.228;2022-12-11T14:33:24;52.15;;;16.92;;
52067;SDS011;60237;52.338;21.228;2022-12-11T14:35:52;78.18;;;19.17;;
52067;SDS011;60237;52.338;21.228;2022-12-11T14:38:24;66.00;;;19.40;;
52067;SDS011;60237;52.338;21.228;2022-12-11T14:40:53;87.93;;;19.50;;
52067;SDS011;60237;52.338;21.228;2022-12-11T14:43:26;50.78;;;16.52;;
52067;SDS011;60237;52.338;21.228;2022-12-11T14:45:54;65.82;;;16.50;;
52067;SDS011;60237;52.338;21.228;2022-12-11T14:48:24;54.95;;;16.75;;
52067;SDS011;60237;52.338;21.228;2022-12-11T14:50:54;95.28;;;20.23;;
52067;SDS011;60237;52.338;21.228;2022-12-11T14:53:26;67.45;;;17.88;;
52067;SDS011;60237;52.338;21.228;2022-12-11T14:55:54;52.80;;;15.40;;
52067;SDS011;60237;52.338;21.228;2022-12-11T14:58:23;75.47;;;19.58;;
52067;SDS011;60237;52.338;21.228;2022-12-11T15:00:59;54.78;;;16.17;;
52067;SDS011;60237;52.338;21.228;2022-12-11T15:03:30;58.33;;;15.35;;
52067;SDS011;60237;52.338;21.228;2022-12-11T15:05:59;71.20;;;16.55;;
52067;SDS011;60237;52.338;21.228;2022-12-11T15:13:21;56.10;;;13.80;;
52067;SDS011;60237;52.338;21.228;2022-12-11T15:15:48;39.10;;;14.05;;
52067;SDS011;60237;52.338;21.228;2022-12-11T15:18:28;75.25;;;16.38;;
52067;SDS011;60237;52.338;21.228;2022-12-11T15:21:00;80.85;;;18.23;;
52067;SDS011;60237;52.338;21.228;2022-12-11T15:23:28;58.25;;;14.75;;
52067;SDS011;60237;52.338;21.228;2022-12-11T15:25:55;56.63;;;15.13;;
52067;SDS011;60237;52.338;21.228;2022-12-11T15:28:27;50.53;;;15.18;;
52067;SDS011;60237;52.338;21.228;2022-12-11T15:30:55;67.40;;;15.05;;
52067;SDS011;60237;52.338;21.228;2022-12-11T15:33:22;56.65;;;15.13;;
52067;SDS011;60237;52.338;21.228;2022-12-11T15:36:18;48.88;;;15.10;;
52067;SDS011;60237;52.338;21.228;2022-12-11T15:38:38;48.72;;;16.33;;
52067;SDS011;60237;52.338;21.228;2022-12-11T15:41:12;73.95;;;21.58;;
52067;SDS011;60237;52.338;21.228;2022-12-11T15:43:38;56.92;;;15.20;;
52067;SDS011;60237;52.338;21.228;2022-12-11T15:46:05;81.13;;;28.25;;